Concord, Alabama
Current Conditions -  °F | °C
As of 4:53 PM on Tuesday 21 Oct 2014 (Local Time) from KBHM Reporting Station
Few Clouds Few Clouds  
Wind Chill: 75°   Ceiling: Unl
Heat Index: 75°   Visibility: 10mi
Dew Point: 51°   Wind: 12mph
Humidity: 43%   Direction: 340°NNW
Pressure: 30.01"   Gusts: NA
Location:  33.3984°N, 87.0224°W
Report Text: KBHM 212153Z 34010KT 10SM FEW049 24/11 A3001 RMK AO2 SLP158 T02390106
Loading
Personal Weather Stations






























Interactive Weather Map
Tropical Storm Tracking
New forecast layout! Learn more

10-Day Weather Forecast

Advertisements
Track Severe Weather on mobile